KAMA/AMA METAR and TAF weather

Enter ICAO airport designator
Station Type Date Time Source
KAMA METAR 2021/01/16 02:53 UTC NOAA

KAMA 160253Z 32012KT 5SM BLDU OVC024 03/M18 A3012 RMK AO2 SLP210 T00281183 51012


Station Type Date Time Source
KAMA Decoded METAR 2021/01/16 02:53 UTC NOAA

AMARILLO INTERNATIONAL AIRPORT, TX, United States (KAMA) 35-13N 101-43W 1093M
Jan 15, 2021 - 09:53 PM EST / 2021.01.16 0253 UTC
Wind: from the NW (320 degrees) at 14 MPH (12 KT):0
Visibility: 5 mile(s):0
Sky conditions: overcast
Weather: blowing widespread dust
Temperature: 37.0 F (2.8 C)
Dew Point: -0.9 F (-18.3 C)
Relative Humidity: 19%
Pressure (altimeter): 30.12 in. Hg (1019 hPa)
Pressure tendency: 0.04 inches (1.2 hPa) higher than three hours ago
ob: KAMA 160253Z 32012KT 5SM BLDU OVC024 03/M18 A3012 RMK AO2 SLP210 T00281183 51012
cycle: 3

Station Type Date Time Source
KAMA TAF 2021/01/16 02:06 UTC NOAA

TAF
AMD KAMA 160203Z 1602/1624 33010KT 5SM BLDU OVC035
FM160600 26008KT P6SM BKN250
FM161700 34010KT P6SM BKN250

Example: see airport list